createdAt,value
2017-08-04T00:00:10.931Z,0
2017-08-04T00:01:10.543Z,0
2017-08-04T00:02:10.652Z,0
2017-08-04T00:03:11.122Z,0
2017-08-04T00:04:10.624Z,0
2017-08-04T00:05:11.052Z,0
2017-08-04T00:06:11.052Z,0
2017-08-04T00:07:10.749Z,0
2017-08-04T00:08:10.969Z,0
2017-08-04T00:09:10.758Z,0
2017-08-04T00:10:10.467Z,0
2017-08-04T00:11:11.134Z,0
2017-08-04T00:12:11.354Z,0
2017-08-04T00:13:11.186Z,0
2017-08-04T00:14:11.365Z,0
2017-08-04T00:15:11.455Z,0
2017-08-04T00:16:11.062Z,0
2017-08-04T00:17:11.383Z,0
2017-08-04T00:18:11.448Z,0
2017-08-04T00:19:11.045Z,0
2017-08-04T00:20:11.130Z,0
2017-08-04T00:21:11.155Z,0
2017-08-04T00:22:11.116Z,0
2017-08-04T00:23:11.571Z,0
2017-08-04T00:24:11.474Z,0
2017-08-04T00:25:11.597Z,0
2017-08-04T00:26:11.539Z,0
2017-08-04T00:27:11.408Z,0
2017-08-04T00:28:11.279Z,0
2017-08-04T00:29:11.625Z,0
2017-08-04T00:30:11.340Z,0
2017-08-04T00:31:11.518Z,0
2017-08-04T00:32:11.703Z,0
2017-08-04T00:33:11.823Z,0
2017-08-04T00:34:11.583Z,0
2017-08-04T00:35:11.163Z,0
2017-08-04T00:36:11.807Z,0
2017-08-04T00:37:11.834Z,0
2017-08-04T00:38:11.868Z,0
2017-08-04T00:39:11.575Z,0
2017-08-04T00:40:11.922Z,0
2017-08-04T00:41:11.949Z,0
2017-08-04T00:42:11.480Z,0
2017-08-04T00:43:12.182Z,0
2017-08-04T00:44:11.715Z,0
2017-08-04T00:45:11.842Z,0
2017-08-04T00:46:12.083Z,0
2017-08-04T00:47:11.789Z,0
2017-08-04T00:48:12.138Z,0
2017-08-04T00:49:12.159Z,0
2017-08-04T00:50:12.188Z,0
2017-08-04T00:51:12.343Z,0
2017-08-04T00:52:12.252Z,0
2017-08-04T00:53:11.947Z,0
2017-08-04T00:54:11.665Z,0
2017-08-04T00:55:12.016Z,0
2017-08-04T00:56:12.033Z,0
2017-08-04T00:57:12.067Z,0
2017-08-04T00:58:12.416Z,0
2017-08-04T00:59:12.121Z,0
2017-08-04T01:00:12.474Z,0
2017-08-04T01:01:12.168Z,0
2017-08-04T01:02:12.193Z,0
2017-08-04T01:03:12.534Z,0
2017-08-04T01:04:12.252Z,0
2017-08-04T01:05:11.985Z,0
2017-08-04T01:06:12.622Z,0
2017-08-04T01:07:12.643Z,0
2017-08-04T01:08:12.770Z,0
2017-08-04T01:09:12.694Z,0
2017-08-04T01:10:12.722Z,0
2017-08-04T01:11:12.759Z,0
2017-08-04T01:12:12.468Z,0
2017-08-04T01:13:12.494Z,0
2017-08-04T01:14:12.834Z,0
2017-08-04T01:15:12.582Z,0
2017-08-04T01:16:12.569Z,0
2017-08-04T01:17:12.652Z,0
2017-08-04T01:18:12.811Z,0
2017-08-04T01:19:12.645Z,0
2017-08-04T01:20:12.355Z,0
2017-08-04T01:21:13.017Z,0
2017-08-04T01:22:12.801Z,0
2017-08-04T01:23:12.850Z,0
2017-08-04T01:24:13.218Z,0
2017-08-04T01:25:12.493Z,0
2017-08-04T01:26:12.522Z,0
2017-08-04T01:27:12.863Z,0
2017-08-04T01:28:13.210Z,0
2017-08-04T01:29:13.236Z,0
2017-08-04T01:30:12.958Z,0
2017-08-04T01:31:12.745Z,0
2017-08-04T01:32:12.990Z,0
2017-08-04T01:33:13.342Z,0
2017-08-04T01:34:13.379Z,0
2017-08-04T01:35:13.671Z,0
2017-08-04T01:36:13.100Z,0
2017-08-04T01:37:13.133Z,0
2017-08-04T01:38:13.751Z,0
2017-08-04T01:39:13.746Z,0
2017-08-04T01:40:13.609Z,0
2017-08-04T01:41:13.352Z,0
2017-08-04T01:42:13.604Z,0
2017-08-04T01:43:13.537Z,0
2017-08-04T01:44:13.650Z,0
2017-08-04T01:45:13.545Z,0
2017-08-04T01:46:13.684Z,0
2017-08-04T01:47:13.800Z,0
2017-08-04T01:48:13.834Z,0
2017-08-04T01:49:13.989Z,0
2017-08-04T01:50:13.573Z,0
2017-08-04T01:51:13.941Z,0
2017-08-04T01:52:13.999Z,0
2017-08-04T01:53:14.000Z,0
2017-08-04T01:54:13.893Z,0
2017-08-04T01:55:13.925Z,0
2017-08-04T01:56:13.634Z,0
2017-08-04T01:57:13.974Z,0
2017-08-04T01:58:14.133Z,0
2017-08-04T01:59:14.243Z,0
2017-08-04T02:00:14.052Z,0
2017-08-04T02:01:13.774Z,0
2017-08-04T02:02:14.114Z,0
2017-08-04T02:03:14.438Z,0
2017-08-04T02:04:13.856Z,0
2017-08-04T02:05:14.194Z,0
2017-08-04T02:06:14.291Z,0
2017-08-04T02:07:14.240Z,0
2017-08-04T02:08:14.300Z,0
2017-08-04T02:09:14.092Z,0
2017-08-04T02:10:14.323Z,0
2017-08-04T02:11:14.352Z,0
2017-08-04T02:12:13.856Z,0
2017-08-04T02:13:14.279Z,0
2017-08-04T02:14:14.443Z,0
2017-08-04T02:15:14.594Z,0
2017-08-04T02:16:13.962Z,0
2017-08-04T02:17:14.195Z,0
2017-08-04T02:18:14.736Z,0
2017-08-04T02:19:14.405Z,0
2017-08-04T02:20:14.049Z,0
2017-08-04T02:21:14.296Z,0
2017-08-04T02:22:14.321Z,0
2017-08-04T02:23:14.813Z,0
2017-08-04T02:24:14.799Z,0
2017-08-04T02:25:14.401Z,0
2017-08-04T02:26:14.644Z,0
2017-08-04T02:27:14.784Z,0
2017-08-04T02:28:14.815Z,0
2017-08-04T02:29:14.516Z,0
2017-08-04T02:30:14.531Z,0
2017-08-04T02:31:14.878Z,0
2017-08-04T02:32:14.908Z,0
2017-08-04T02:33:14.681Z,0
2017-08-04T02:34:14.854Z,0
2017-08-04T02:35:14.983Z,0
2017-08-04T02:36:15.014Z,0
2017-08-04T02:37:15.034Z,0
2017-08-04T02:38:15.069Z,0
2017-08-04T02:39:15.089Z,0
2017-08-04T02:40:15.117Z,0
2017-08-04T02:41:15.141Z,0
2017-08-04T02:42:15.175Z,0
2017-08-04T02:43:15.194Z,0
2017-08-04T02:44:14.900Z,0
2017-08-04T02:45:15.244Z,0
2017-08-04T02:46:14.962Z,0
2017-08-04T02:47:15.298Z,0
2017-08-04T02:48:15.323Z,0
2017-08-04T02:49:15.351Z,0
2017-08-04T02:50:15.066Z,0
2017-08-04T02:51:15.399Z,0
2017-08-04T02:52:15.427Z,0
2017-08-04T02:53:15.457Z,0
2017-08-04T02:54:15.479Z,0
2017-08-04T02:55:15.506Z,0
2017-08-04T02:56:15.665Z,0
2017-08-04T02:57:15.677Z,0
2017-08-04T02:58:15.406Z,0
2017-08-04T02:59:15.297Z,0
2017-08-04T03:00:15.638Z,0
2017-08-04T03:01:15.355Z,0
2017-08-04T03:02:15.391Z,0
2017-08-04T03:03:15.406Z,0
2017-08-04T03:04:15.523Z,0
2017-08-04T03:05:15.665Z,0
2017-08-04T03:06:15.474Z,0
2017-08-04T03:07:15.499Z,0
2017-08-04T03:08:15.212Z,0
2017-08-04T03:09:15.552Z,0
2017-08-04T03:10:15.903Z,0
2017-08-04T03:11:15.929Z,0
2017-08-04T03:12:15.635Z,0
2017-08-04T03:13:15.657Z,0
2017-08-04T03:14:16.005Z,0
2017-08-04T03:15:16.029Z,4
2017-08-04T03:16:15.738Z,4
2017-08-04T03:17:15.881Z,4
2017-08-04T03:18:16.233Z,0
2017-08-04T03:19:16.205Z,0
2017-08-04T03:20:16.289Z,4
2017-08-04T03:21:16.196Z,4
2017-08-04T03:22:16.217Z,4
2017-08-04T03:23:15.921Z,4
2017-08-04T03:24:16.274Z,4
2017-08-04T03:25:16.291Z,4
2017-08-04T03:26:16.001Z,8
2017-08-04T03:27:16.026Z,8
2017-08-04T03:28:16.555Z,4
2017-08-04T03:29:16.392Z,8
2017-08-04T03:30:15.792Z,4
2017-08-04T03:31:16.143Z,8
2017-08-04T03:32:16.162Z,12
2017-08-04T03:33:16.498Z,8
2017-08-04T03:34:15.891Z,12
2017-08-04T03:35:15.918Z,12
2017-08-04T03:36:16.784Z,12
2017-08-04T03:37:16.715Z,16
2017-08-04T03:38:16.314Z,16
2017-08-04T03:39:16.665Z,16
2017-08-04T03:40:16.452Z,20
2017-08-04T03:41:16.776Z,24
2017-08-04T03:42:16.737Z,24
2017-08-04T03:43:17.033Z,32
2017-08-04T03:44:31.443Z,32
2017-08-04T03:45:16.907Z,32
2017-08-04T03:46:16.204Z,32
2017-08-04T03:47:16.859Z,32
2017-08-04T03:48:16.911Z,36
2017-08-04T03:49:16.947Z,36
2017-08-04T03:50:17.072Z,40
2017-08-04T03:51:17.305Z,40
2017-08-04T03:52:17.083Z,48
2017-08-04T03:53:17.112Z,52
2017-08-04T03:54:17.139Z,56
2017-08-04T03:55:16.973Z,60
2017-08-04T03:56:16.899Z,60
2017-08-04T03:57:17.305Z,60
2017-08-04T03:58:16.668Z,64
2017-08-04T03:59:16.539Z,68
2017-08-04T04:00:17.442Z,76
2017-08-04T04:01:17.225Z,84
2017-08-04T04:02:17.257Z,88
2017-08-04T04:03:17.276Z,92
2017-08-04T04:04:16.996Z,96
2017-08-04T04:05:17.452Z,100
2017-08-04T04:06:17.491Z,108
2017-08-04T04:07:17.387Z,116
2017-08-04T04:08:17.406Z,120
2017-08-04T04:09:17.113Z,124
2017-08-04T04:10:17.462Z,128
2017-08-04T04:11:17.484Z,132
2017-08-04T04:12:17.513Z,124
2017-08-04T04:13:17.544Z,124
2017-08-04T04:14:17.364Z,120
2017-08-04T04:15:17.592Z,116
2017-08-04T04:16:17.613Z,120
2017-08-04T04:17:17.764Z,128
2017-08-04T04:18:17.352Z,132
2017-08-04T04:19:17.057Z,136
2017-08-04T04:20:17.720Z,148
2017-08-04T04:21:17.872Z,160
2017-08-04T04:22:17.769Z,176
2017-08-04T04:23:17.818Z,184
2017-08-04T04:24:17.628Z,188
2017-08-04T04:25:17.848Z,188
2017-08-04T04:26:17.882Z,192
2017-08-04T04:27:17.587Z,192
2017-08-04T04:28:17.930Z,196
2017-08-04T04:29:17.964Z,200
2017-08-04T04:30:17.657Z,200
2017-08-04T04:31:17.792Z,200
2017-08-04T04:32:18.025Z,192
2017-08-04T04:33:18.062Z,216
2017-08-04T04:34:17.773Z,248
2017-08-04T04:35:18.106Z,236
2017-08-04T04:36:18.226Z,204
2017-08-04T04:37:18.154Z,184
2017-08-04T04:38:18.182Z,184
2017-08-04T04:39:17.897Z,208
2017-08-04T04:40:18.232Z,244
2017-08-04T04:41:18.263Z,268
2017-08-04T04:42:17.968Z,292
2017-08-04T04:43:17.993Z,284
2017-08-04T04:44:18.020Z,256
2017-08-04T04:45:18.047Z,216
2017-08-04T04:46:18.066Z,212
2017-08-04T04:47:18.224Z,188
2017-08-04T04:48:18.445Z,180
2017-08-04T04:49:18.492Z,168
2017-08-04T04:50:18.186Z,156
2017-08-04T04:51:18.200Z,156
2017-08-04T04:52:18.233Z,152
2017-08-04T04:53:18.266Z,188
2017-08-04T04:54:18.592Z,196
2017-08-04T04:55:18.303Z,184
2017-08-04T04:56:18.648Z,172
2017-08-04T04:57:18.675Z,196
2017-08-04T04:58:18.064Z,216
2017-08-04T04:59:18.818Z,204
2017-08-04T05:00:18.812Z,212
2017-08-04T05:01:18.149Z,232
2017-08-04T05:02:18.826Z,276
2017-08-04T05:03:18.827Z,304
2017-08-04T05:04:18.998Z,300
2017-08-04T05:05:18.886Z,332
2017-08-04T05:06:18.903Z,412
2017-08-04T05:07:18.927Z,396
2017-08-04T05:08:18.960Z,388
2017-08-04T05:09:18.984Z,472
2017-08-04T05:10:19.026Z,572
2017-08-04T05:11:19.034Z,676
2017-08-04T05:12:18.744Z,732
2017-08-04T05:13:19.095Z,628
2017-08-04T05:14:19.124Z,428
2017-08-04T05:15:18.822Z,444
2017-08-04T05:16:19.168Z,580
2017-08-04T05:17:19.185Z,732
2017-08-04T05:18:18.909Z,604
2017-08-04T05:19:19.246Z,452
2017-08-04T05:20:19.266Z,496
2017-08-04T05:21:18.973Z,512
2017-08-04T05:22:19.005Z,592
2017-08-04T05:23:19.344Z,728
2017-08-04T05:24:19.379Z,604
2017-08-04T05:25:19.083Z,556
2017-08-04T05:26:19.436Z,596
2017-08-04T05:27:19.444Z,672
2017-08-04T05:28:19.474Z,716
2017-08-04T05:29:19.496Z,624
2017-08-04T05:30:19.531Z,716
2017-08-04T05:31:19.548Z,604
2017-08-04T05:32:19.576Z,496
2017-08-04T05:33:19.599Z,472
2017-08-04T05:34:19.622Z,584
2017-08-04T05:35:19.654Z,452
2017-08-04T05:36:19.685Z,492
2017-08-04T05:37:19.705Z,524
2017-08-04T05:38:19.727Z,572
2017-08-04T05:39:18.808Z,596
2017-08-04T05:40:19.518Z,612
2017-08-04T05:41:19.815Z,624
2017-08-04T05:42:19.519Z,636
2017-08-04T05:43:19.984Z,652
2017-08-04T05:44:19.883Z,724
2017-08-04T05:45:19.591Z,832
2017-08-04T05:46:19.307Z,840
2017-08-04T05:47:19.645Z,832
2017-08-04T05:48:19.676Z,828
2017-08-04T05:49:19.695Z,848
2017-08-04T05:50:20.046Z,852
2017-08-04T05:51:20.079Z,868
2017-08-04T05:52:20.094Z,852
2017-08-04T05:53:19.803Z,772
2017-08-04T05:54:20.149Z,772
2017-08-04T05:55:20.171Z,780
2017-08-04T05:56:19.878Z,876
2017-08-04T05:57:20.222Z,900
2017-08-04T05:58:20.249Z,896
2017-08-04T05:59:20.358Z,876
2017-08-04T06:00:20.395Z,852
2017-08-04T06:01:20.394Z,908
2017-08-04T06:02:20.399Z,1000
2017-08-04T06:03:20.391Z,1108
2017-08-04T06:04:20.411Z,1180
2017-08-04T06:05:20.482Z,1064
2017-08-04T06:06:20.137Z,928
2017-08-04T06:07:20.482Z,876
2017-08-04T06:08:20.517Z,844
2017-08-04T06:09:20.534Z,912
2017-08-04T06:10:20.604Z,896
2017-08-04T06:11:20.587Z,848
2017-08-04T06:12:19.978Z,828
2017-08-04T06:13:20.645Z,816
2017-08-04T06:14:20.465Z,708
2017-08-04T06:15:20.693Z,656
2017-08-04T06:16:20.428Z,640
2017-08-04T06:17:20.428Z,668
2017-08-04T06:18:20.773Z,680
2017-08-04T06:19:20.793Z,852
2017-08-04T06:20:20.828Z,940
2017-08-04T06:21:20.874Z,1036
2017-08-04T06:22:20.876Z,1008
2017-08-04T06:23:20.587Z,928
2017-08-04T06:24:20.930Z,848
2017-08-04T06:25:20.644Z,884
2017-08-04T06:26:20.987Z,940
2017-08-04T06:27:21.006Z,1004
2017-08-04T06:28:21.038Z,1124
2017-08-04T06:29:21.063Z,1192
2017-08-04T06:30:21.101Z,1252
2017-08-04T06:31:20.793Z,1260
2017-08-04T06:32:20.822Z,1256
2017-08-04T06:33:21.161Z,1244
2017-08-04T06:34:20.868Z,1248
2017-08-04T06:35:20.897Z,1288
2017-08-04T06:36:21.253Z,1304
2017-08-04T06:37:21.271Z,1268
2017-08-04T06:38:21.294Z,1256
2017-08-04T06:39:21.332Z,1260
2017-08-04T06:40:20.712Z,1272
2017-08-04T06:41:21.377Z,1312
2017-08-04T06:42:21.404Z,1340
2017-08-04T06:43:21.428Z,1336
2017-08-04T06:44:21.470Z,1328
2017-08-04T06:45:21.490Z,1352
2017-08-04T06:46:21.198Z,1384
2017-08-04T06:47:21.221Z,1412
2017-08-04T06:48:21.240Z,1440
2017-08-04T06:49:21.281Z,1464
2017-08-04T06:50:21.916Z,1500
2017-08-04T06:51:21.333Z,1500
2017-08-04T06:52:21.676Z,1528
2017-08-04T06:53:21.692Z,1532
2017-08-04T06:54:21.723Z,1524
2017-08-04T06:55:21.753Z,1480
2017-08-04T06:56:21.775Z,1424
2017-08-04T06:57:21.802Z,1372
2017-08-04T06:58:21.825Z,1328
2017-08-04T06:59:21.539Z,1260
2017-08-04T07:00:21.558Z,1264
2017-08-04T07:01:21.906Z,1228
2017-08-04T07:02:21.929Z,1272
2017-08-04T07:03:21.952Z,1280
2017-08-04T07:04:21.986Z,1272
2017-08-04T07:05:22.009Z,1304
2017-08-04T07:06:21.399Z,1352
2017-08-04T07:07:21.742Z,1432
2017-08-04T07:08:22.092Z,1604
2017-08-04T07:09:21.806Z,1600
2017-08-04T07:10:22.142Z,1612
2017-08-04T07:11:22.167Z,1708
2017-08-04T07:12:22.194Z,1724
2017-08-04T07:13:22.220Z,1764
2017-08-04T07:14:22.368Z,1776
2017-08-04T07:15:22.351Z,1828
2017-08-04T07:16:21.986Z,1924
2017-08-04T07:17:22.014Z,2052
2017-08-04T07:18:22.360Z,2180
2017-08-04T07:19:22.379Z,2164
2017-08-04T07:20:22.408Z,1992
2017-08-04T07:21:22.533Z,1852
2017-08-04T07:22:22.461Z,1800
2017-08-04T07:23:22.484Z,1768
2017-08-04T07:24:22.198Z,1752
2017-08-04T07:25:22.545Z,1796
2017-08-04T07:26:22.581Z,1856
2017-08-04T07:27:22.598Z,1884
2017-08-04T07:28:22.616Z,1884
2017-08-04T07:29:22.650Z,1896
2017-08-04T07:30:22.672Z,1920
2017-08-04T07:31:22.716Z,1912
2017-08-04T07:32:22.729Z,1896
2017-08-04T07:33:22.479Z,1840
2017-08-04T07:34:22.793Z,1852
2017-08-04T07:35:22.814Z,1904
2017-08-04T07:36:22.518Z,1896
2017-08-04T07:37:22.548Z,1912
2017-08-04T07:38:22.255Z,1928
2017-08-04T07:39:22.604Z,1984
2017-08-04T07:40:22.633Z,1768
2017-08-04T07:41:22.975Z,1564
2017-08-04T07:42:23.011Z,1416
2017-08-04T07:43:23.039Z,1344
2017-08-04T07:44:22.739Z,1580
2017-08-04T07:45:22.768Z,1656
2017-08-04T07:46:22.795Z,1580
2017-08-04T07:47:22.882Z,1548
2017-08-04T07:48:23.214Z,1612
2017-08-04T07:49:23.190Z,1856
2017-08-04T07:50:22.897Z,1928
2017-08-04T07:51:23.291Z,1964
2017-08-04T07:52:23.269Z,2000
2017-08-04T07:53:23.303Z,2004
2017-08-04T07:54:23.336Z,2084
2017-08-04T07:55:23.447Z,2040
2017-08-04T07:56:22.750Z,1992
2017-08-04T07:57:23.092Z,1904
2017-08-04T07:58:23.153Z,1988
2017-08-04T07:59:23.476Z,1968
2017-08-04T08:00:23.169Z,1948
2017-08-04T08:01:23.517Z,1960
2017-08-04T08:02:23.550Z,2076
2017-08-04T08:03:23.571Z,2044
2017-08-04T08:04:23.593Z,2072
2017-08-04T08:05:23.624Z,2096
2017-08-04T08:06:23.348Z,2064
2017-08-04T08:07:23.678Z,2200
2017-08-04T08:08:23.705Z,2212
2017-08-04T08:09:23.745Z,2048
2017-08-04T08:10:23.758Z,1888
2017-08-04T08:11:23.993Z,1804
2017-08-04T08:12:23.905Z,1984
2017-08-04T08:13:23.535Z,2104
2017-08-04T08:14:23.873Z,2116
2017-08-04T08:15:23.588Z,2208
2017-08-04T08:16:23.605Z,2180
2017-08-04T08:17:23.638Z,2188
2017-08-04T08:18:23.984Z,2132
2017-08-04T08:19:23.694Z,2280
2017-08-04T08:20:24.103Z,2340
2017-08-04T08:21:24.071Z,2268
2017-08-04T08:22:23.773Z,2140
2017-08-04T08:23:23.486Z,2108
2017-08-04T08:24:24.158Z,2048
2017-08-04T08:25:23.857Z,2136
2017-08-04T08:26:24.203Z,2148
2017-08-04T08:27:24.259Z,2104
2017-08-04T08:28:24.263Z,2012
2017-08-04T08:29:24.284Z,1800
2017-08-04T08:30:24.314Z,1664
2017-08-04T08:31:24.340Z,1644
2017-08-04T08:32:23.740Z,1772
2017-08-04T08:33:24.393Z,1892
2017-08-04T08:34:24.422Z,2176
2017-08-04T08:35:24.452Z,2304
2017-08-04T08:36:24.477Z,2364
2017-08-04T08:37:24.506Z,2364
2017-08-04T08:38:24.538Z,2344
2017-08-04T08:39:24.562Z,2412
2017-08-04T08:40:24.591Z,2412
2017-08-04T08:41:24.612Z,2380
2017-08-04T08:42:24.645Z,2384
2017-08-04T08:43:24.686Z,2200
2017-08-04T08:44:24.707Z,2012
2017-08-04T08:45:24.410Z,2008
2017-08-04T08:46:24.754Z,1800
2017-08-04T08:47:24.783Z,1856
2017-08-04T08:48:24.814Z,1924
2017-08-04T08:49:24.525Z,1792
2017-08-04T08:50:24.869Z,1644
2017-08-04T08:51:24.589Z,1776
2017-08-04T08:52:24.611Z,2024
2017-08-04T08:53:24.955Z,2672
2017-08-04T08:54:24.977Z,3068
2017-08-04T08:55:25.008Z,2444
2017-08-04T08:56:24.714Z,1920
2017-08-04T08:57:24.751Z,1400
2017-08-04T08:58:25.093Z,1664
2017-08-04T08:59:24.833Z,2040
2017-08-04T09:00:25.213Z,2008
2017-08-04T09:01:25.175Z,2532
2017-08-04T09:02:25.204Z,3200
2017-08-04T09:03:24.912Z,2968
2017-08-04T09:04:25.347Z,2952
2017-08-04T09:05:25.353Z,3444
2017-08-04T09:06:24.998Z,3184
2017-08-04T09:07:25.428Z,3048
2017-08-04T09:08:25.052Z,3156
2017-08-04T09:09:25.399Z,3272
2017-08-04T09:10:25.239Z,3260
2017-08-04T09:11:25.459Z,3272
2017-08-04T09:12:25.716Z,3292
2017-08-04T09:13:25.726Z,3312
2017-08-04T09:14:25.222Z,3284
2017-08-04T09:15:25.573Z,3328
2017-08-04T09:16:25.470Z,3404
2017-08-04T09:17:25.437Z,3452
2017-08-04T09:18:25.475Z,3384
2017-08-04T09:19:25.474Z,3336
2017-08-04T09:20:25.712Z,3364
2017-08-04T09:21:25.475Z,3168
2017-08-04T09:22:25.448Z,2932
2017-08-04T09:23:25.160Z,2924
2017-08-04T09:24:25.549Z,3300
2017-08-04T09:25:25.214Z,3436
2017-08-04T09:26:25.880Z,3616
2017-08-04T09:27:25.596Z,3168
2017-08-04T09:28:25.955Z,2820
2017-08-04T09:29:25.647Z,2700
2017-08-04T09:30:25.698Z,2940
2017-08-04T09:31:26.022Z,3204
2017-08-04T09:32:26.052Z,3908
2017-08-04T09:33:26.078Z,3976
2017-08-04T09:34:26.113Z,3968
2017-08-04T09:35:25.819Z,4036
2017-08-04T09:36:25.889Z,4148
2017-08-04T09:37:25.876Z,3872
2017-08-04T09:38:26.228Z,3412
2017-08-04T09:39:26.256Z,3392
2017-08-04T09:40:26.285Z,3364
2017-08-04T09:41:26.001Z,3420
2017-08-04T09:42:26.548Z,3216
2017-08-04T09:43:26.364Z,3356
2017-08-04T09:44:26.553Z,3360
2017-08-04T09:45:26.113Z,3060
2017-08-04T09:46:26.143Z,2556
2017-08-04T09:47:26.486Z,2248
2017-08-04T09:48:26.414Z,1816
2017-08-04T09:49:26.234Z,1228
2017-08-04T09:50:26.570Z,1096
2017-08-04T09:51:26.663Z,1012
2017-08-04T09:52:26.631Z,1696
2017-08-04T09:53:26.342Z,2288
2017-08-04T09:54:26.378Z,2376
2017-08-04T09:55:26.842Z,2180
2017-08-04T09:56:26.744Z,2624
2017-08-04T09:57:26.777Z,3296
2017-08-04T09:58:26.488Z,2472
2017-08-04T09:59:26.213Z,2092
2017-08-04T10:00:26.867Z,2940
2017-08-04T10:01:26.892Z,3296
2017-08-04T10:02:26.920Z,3468
2017-08-04T10:03:26.954Z,2872
2017-08-04T10:04:26.992Z,2276
2017-08-04T10:05:27.013Z,2472
2017-08-04T10:06:27.045Z,2284
2017-08-04T10:07:26.771Z,2032
2017-08-04T10:08:27.097Z,1948
2017-08-04T10:09:27.140Z,2244
2017-08-04T10:10:27.158Z,2412
2017-08-04T10:11:26.876Z,1856
2017-08-04T10:12:26.902Z,1476
2017-08-04T10:13:27.243Z,1264
2017-08-04T10:14:27.283Z,1332
2017-08-04T10:15:27.303Z,1852
2017-08-04T10:16:27.333Z,2776
2017-08-04T10:17:27.044Z,2748
2017-08-04T10:18:27.397Z,1840
2017-08-04T10:19:27.434Z,1624
2017-08-04T10:20:27.467Z,2072
2017-08-04T10:21:27.168Z,2764
2017-08-04T10:22:27.513Z,2852
2017-08-04T10:23:27.535Z,2484
2017-08-04T10:24:27.573Z,2344
2017-08-04T10:25:27.614Z,2624
2017-08-04T10:26:27.626Z,3088
2017-08-04T10:27:27.659Z,2980
2017-08-04T10:28:27.684Z,2520
2017-08-04T10:29:27.726Z,2236
2017-08-04T10:30:27.746Z,2344
2017-08-04T10:31:27.455Z,2348
2017-08-04T10:32:27.809Z,2448
2017-08-04T10:33:27.515Z,2940
2017-08-04T10:34:27.867Z,3044
2017-08-04T10:35:27.581Z,3420
2017-08-04T10:36:27.923Z,3356
2017-08-04T10:37:27.642Z,3008
2017-08-04T10:38:28.048Z,2960
2017-08-04T10:39:27.697Z,3032
2017-08-04T10:40:28.040Z,2952
2017-08-04T10:41:27.768Z,3004
2017-08-04T10:42:28.161Z,3084
2017-08-04T10:43:27.814Z,3104
2017-08-04T10:44:28.177Z,3012
2017-08-04T10:45:27.971Z,2312
2017-08-04T10:46:27.907Z,2660
2017-08-04T10:47:28.251Z,1992
2017-08-04T10:48:28.306Z,1796
2017-08-04T10:49:28.344Z,1824
2017-08-04T10:50:28.358Z,1740
2017-08-04T10:51:28.673Z,2200
2017-08-04T10:52:28.082Z,2808
2017-08-04T10:53:28.424Z,3108
2017-08-04T10:54:28.465Z,3040
2017-08-04T10:55:28.494Z,2932
2017-08-04T10:56:28.412Z,2588
2017-08-04T10:57:28.548Z,2488
2017-08-04T10:58:27.942Z,3204
2017-08-04T10:59:28.626Z,3132
2017-08-04T11:00:28.955Z,3516
2017-08-04T11:01:28.673Z,2644
2017-08-04T11:02:28.699Z,2344
2017-08-04T11:03:28.726Z,1984
2017-08-04T11:04:28.754Z,1652
2017-08-04T11:05:28.788Z,1764
2017-08-04T11:06:28.824Z,2656
2017-08-04T11:07:28.967Z,3728
2017-08-04T11:08:28.882Z,3072
2017-08-04T11:09:28.906Z,2352
2017-08-04T11:10:28.991Z,1952
2017-08-04T11:11:28.662Z,2020
2017-08-04T11:12:29.112Z,2100
2017-08-04T11:13:29.023Z,2860
2017-08-04T11:14:28.425Z,3184
2017-08-04T11:15:29.156Z,4896
2017-08-04T11:16:29.155Z,5648
2017-08-04T11:17:28.827Z,5232
2017-08-04T11:18:28.549Z,4716
2017-08-04T11:19:29.207Z,4452
2017-08-04T11:20:29.231Z,4184
2017-08-04T11:21:29.264Z,3704
2017-08-04T11:22:28.979Z,3648
2017-08-04T11:23:29.325Z,3652
2017-08-04T11:24:29.357Z,3204
2017-08-04T11:25:29.387Z,3392
2017-08-04T11:26:29.418Z,3672
2017-08-04T11:27:29.163Z,3548
2017-08-04T11:28:29.476Z,3296
2017-08-04T11:29:29.509Z,3528
2017-08-04T11:30:29.578Z,3592
2017-08-04T11:31:29.298Z,3544
2017-08-04T11:32:29.600Z,2880
2017-08-04T11:33:29.313Z,2324
2017-08-04T11:34:29.665Z,2268
2017-08-04T11:35:29.696Z,2464
2017-08-04T11:36:29.719Z,2828
2017-08-04T11:37:29.879Z,3460
2017-08-04T11:38:29.791Z,4484
2017-08-04T11:39:29.821Z,5332
2017-08-04T11:40:29.839Z,4048
2017-08-04T11:41:29.873Z,4968
2017-08-04T11:42:29.905Z,5356
2017-08-04T11:43:29.942Z,5104
2017-08-04T11:44:30.015Z,4648
2017-08-04T11:45:30.018Z,4452
2017-08-04T11:46:30.078Z,4364
2017-08-04T11:47:29.739Z,4204
2017-08-04T11:48:30.095Z,3352
2017-08-04T11:49:30.119Z,2376
2017-08-04T11:50:29.829Z,2164
2017-08-04T11:51:30.177Z,3012
2017-08-04T11:52:30.210Z,3060
2017-08-04T11:53:30.244Z,4056
2017-08-04T11:54:30.211Z,4744
2017-08-04T11:55:30.323Z,3616
2017-08-04T11:56:30.329Z,2148
2017-08-04T11:57:30.043Z,1860
2017-08-04T11:58:29.765Z,2988
2017-08-04T11:59:30.426Z,3028
2017-08-04T12:00:30.298Z,2816
2017-08-04T12:01:30.484Z,2848
2017-08-04T12:02:30.196Z,2376
2017-08-04T12:03:30.228Z,3932
2017-08-04T12:04:30.381Z,3964
2017-08-04T12:05:30.609Z,5220
2017-08-04T12:06:30.346Z,5064
2017-08-04T12:07:30.664Z,4236
2017-08-04T12:08:30.502Z,5608
2017-08-04T12:09:30.730Z,5200
2017-08-04T12:10:30.151Z,5352
2017-08-04T12:11:30.485Z,5128
2017-08-04T12:12:30.505Z,4300
2017-08-04T12:13:30.854Z,3160
2017-08-04T12:14:30.573Z,2892
2017-08-04T12:15:30.599Z,2188
2017-08-04T12:16:30.951Z,2412
2017-08-04T12:17:30.983Z,2072
2017-08-04T12:18:30.062Z,1380
2017-08-04T12:19:30.730Z,1644
2017-08-04T12:20:31.082Z,3136
2017-08-04T12:21:30.791Z,3096
2017-08-04T12:22:30.835Z,2596
2017-08-04T12:23:30.538Z,2124
2017-08-04T12:24:31.205Z,3272
2017-08-04T12:25:30.912Z,2712
2017-08-04T12:26:31.276Z,2368
2017-08-04T12:27:31.490Z,3836
2017-08-04T12:28:31.353Z,1744
2017-08-04T12:29:31.439Z,1596
2017-08-04T12:30:31.392Z,1876
2017-08-04T12:31:31.540Z,2472
2017-08-04T12:32:31.449Z,2716
2017-08-04T12:33:31.605Z,2652
2017-08-04T12:34:31.513Z,5600
2017-08-04T12:35:31.546Z,5092
2017-08-04T12:36:31.751Z,5288
2017-08-04T12:37:31.736Z,4832
2017-08-04T12:38:31.121Z,3472
2017-08-04T12:39:31.677Z,3428
2017-08-04T12:40:31.706Z,4368
2017-08-04T12:41:31.421Z,4444
2017-08-04T12:42:31.450Z,4280
2017-08-04T12:43:31.805Z,2880
2017-08-04T12:44:31.837Z,2288
2017-08-04T12:45:31.861Z,2336
2017-08-04T12:46:31.902Z,3308
2017-08-04T12:47:31.620Z,5340
2017-08-04T12:48:31.640Z,3392
2017-08-04T12:49:31.995Z,4208
2017-08-04T12:50:32.154Z,4092
2017-08-04T12:51:32.061Z,4484
2017-08-04T12:52:32.088Z,3148
2017-08-04T12:53:32.134Z,3736
2017-08-04T12:54:31.837Z,3296
2017-08-04T12:55:32.189Z,2236
2017-08-04T12:56:32.229Z,1480
2017-08-04T12:57:32.431Z,1304
2017-08-04T12:58:32.232Z,2328
2017-08-04T12:59:32.450Z,2504
2017-08-04T13:00:32.346Z,2496
2017-08-04T13:01:32.374Z,1940
2017-08-04T13:02:32.102Z,2872
2017-08-04T13:03:32.244Z,3824
2017-08-04T13:04:32.349Z,2524
2017-08-04T13:05:32.281Z,2156
2017-08-04T13:06:32.248Z,1240
2017-08-04T13:07:32.723Z,1084
2017-08-04T13:08:32.615Z,1464
2017-08-04T13:09:32.652Z,1448
2017-08-04T13:10:32.355Z,2104
2017-08-04T13:11:32.698Z,3932
2017-08-04T13:12:32.849Z,5160
2017-08-04T13:13:32.763Z,3328
2017-08-04T13:14:32.794Z,2540
2017-08-04T13:15:32.964Z,1460
2017-08-04T13:16:32.876Z,1636
2017-08-04T13:17:32.891Z,2296
2017-08-04T13:18:32.942Z,1464
2017-08-04T13:19:32.971Z,1580
2017-08-04T13:20:33.098Z,1916
2017-08-04T13:21:33.123Z,3032
2017-08-04T13:22:32.735Z,2848
2017-08-04T13:23:32.781Z,4580
2017-08-04T13:24:33.120Z,4704
2017-08-04T13:25:32.524Z,3716
2017-08-04T13:26:33.187Z,2544
2017-08-04T13:27:33.273Z,2592
2017-08-04T13:28:32.982Z,2336
2017-08-04T13:29:33.019Z,2512
2017-08-04T13:30:33.317Z,2832
2017-08-04T13:31:33.508Z,3504
2017-08-04T13:32:33.381Z,4560
2017-08-04T13:33:33.412Z,4584
2017-08-04T13:34:33.444Z,3264
2017-08-04T13:35:33.488Z,3372
2017-08-04T13:36:33.508Z,3708
2017-08-04T13:37:33.542Z,2832
2017-08-04T13:38:33.582Z,1884
2017-08-04T13:39:33.646Z,1400
2017-08-04T13:40:33.665Z,1904
2017-08-04T13:41:33.680Z,2796
2017-08-04T13:42:33.707Z,2628
2017-08-04T13:43:33.734Z,1960
2017-08-04T13:44:33.767Z,1736
2017-08-04T13:45:33.804Z,1896
2017-08-04T13:46:33.521Z,1780